sensor_id;sensor_type;location;lat;lon;timestamp;pressure;altitude;pressure_sealevel;temperature;humidity
51313;BME280;37397;53.226;10.400;2023-02-03T00:01:45;101376.72;;;6.35;75.34
51313;BME280;37397;53.226;10.400;2023-02-03T00:04:12;101350.56;;;6.28;74.87
51313;BME280;37397;53.226;10.400;2023-02-03T00:06:39;101353.34;;;6.31;75.06
51313;BME280;37397;53.226;10.400;2023-02-03T00:09:06;101338.28;;;6.34;75.13
51313;BME280;37397;53.226;10.400;2023-02-03T00:11:32;101316.72;;;6.20;75.02
51313;BME280;37397;53.226;10.400;2023-02-03T00:13:59;101329.06;;;6.30;75.10
51313;BME280;37397;53.226;10.400;2023-02-03T00:16:25;101311.41;;;6.23;75.05
51313;BME280;37397;53.226;10.400;2023-02-03T00:18:52;101303.78;;;6.19;75.56
51313;BME280;37397;53.226;10.400;2023-02-03T00:21:22;101280.22;;;6.06;75.07
51313;BME280;37397;53.226;10.400;2023-02-03T00:23:49;101304.94;;;6.22;75.29
51313;BME280;37397;53.226;10.400;2023-02-03T00:26:16;101317.00;;;6.26;75.42
51313;BME280;37397;53.226;10.400;2023-02-03T00:28:43;101303.63;;;6.27;75.35
51313;BME280;37397;53.226;10.400;2023-02-03T00:31:14;101318.88;;;6.33;75.44
51313;BME280;37397;53.226;10.400;2023-02-03T00:33:41;101313.13;;;6.36;75.46
51313;BME280;37397;53.226;10.400;2023-02-03T00:36:08;101305.06;;;6.35;75.39
51313;BME280;37397;53.226;10.400;2023-02-03T00:38:35;101313.91;;;6.37;75.55
51313;BME280;37397;53.226;10.400;2023-02-03T00:41:02;101289.47;;;6.27;75.42
51313;BME280;37397;53.226;10.400;2023-02-03T00:43:28;101289.28;;;6.34;75.33
51313;BME280;37397;53.226;10.400;2023-02-03T00:45:55;101290.44;;;6.36;75.48
51313;BME280;37397;53.226;10.400;2023-02-03T00:48:21;101285.31;;;6.31;75.32
51313;BME280;37397;53.226;10.400;2023-02-03T00:50:48;101289.66;;;6.36;75.23
51313;BME280;37397;53.226;10.400;2023-02-03T00:53:14;101281.16;;;6.36;75.28
51313;BME280;37397;53.226;10.400;2023-02-03T00:55:42;101258.28;;;6.27;75.61
51313;BME280;37397;53.226;10.400;2023-02-03T00:58:09;101277.84;;;6.37;75.71
51313;BME280;37397;53.226;10.400;2023-02-03T01:00:36;101280.97;;;6.43;75.71
51313;BME280;37397;53.226;10.400;2023-02-03T01:03:02;101274.16;;;6.41;75.62
51313;BME280;37397;53.226;10.400;2023-02-03T01:18:05;101279.03;;;6.40;76.41
51313;BME280;37397;53.226;10.400;2023-02-03T01:20:31;101256.09;;;6.34;76.62
51313;BME280;37397;53.226;10.400;2023-02-03T01:22:58;101252.28;;;6.41;76.53
51313;BME280;37397;53.226;10.400;2023-02-03T01:25:24;101238.47;;;6.43;77.05
51313;BME280;37397;53.226;10.400;2023-02-03T01:27:51;101229.84;;;6.47;77.01
51313;BME280;37397;53.226;10.400;2023-02-03T01:30:17;101232.59;;;6.50;77.07
51313;BME280;37397;53.226;10.400;2023-02-03T01:32:45;101220.91;;;6.48;77.19
51313;BME280;37397;53.226;10.400;2023-02-03T01:35:12;101221.97;;;6.54;77.43
51313;BME280;37397;53.226;10.400;2023-02-03T01:37:38;101221.09;;;6.57;77.45
51313;BME280;37397;53.226;10.400;2023-02-03T01:40:05;101198.22;;;6.48;77.56
51313;BME280;37397;53.226;10.400;2023-02-03T01:42:32;101203.53;;;6.63;78.17
51313;BME280;37397;53.226;10.400;2023-02-03T01:44:59;101206.28;;;6.66;78.22
51313;BME280;37397;53.226;10.400;2023-02-03T01:47:30;101198.22;;;6.65;78.84
51313;BME280;37397;53.226;10.400;2023-02-03T01:50:17;101191.91;;;6.73;79.24
51313;BME280;37397;53.226;10.400;2023-02-03T01:52:49;101178.88;;;6.76;79.17
51313;BME280;37397;53.226;10.400;2023-02-03T01:55:20;101173.56;;;6.78;79.44
51313;BME280;37397;53.226;10.400;2023-02-03T01:57:51;101162.91;;;6.82;79.49
51313;BME280;37397;53.226;10.400;2023-02-03T02:00:19;101152.38;;;6.83;79.54
51313;BME280;37397;53.226;10.400;2023-02-03T02:02:46;101151.38;;;6.89;79.63
51313;BME280;37397;53.226;10.400;2023-02-03T02:05:31;101152.63;;;6.88;79.86
51313;BME280;37397;53.226;10.400;2023-02-03T02:08:00;101121.41;;;6.88;79.46
51313;BME280;37397;53.226;10.400;2023-02-03T02:10:29;101137.78;;;6.97;79.94
51313;BME280;37397;53.226;10.400;2023-02-03T02:12:57;101129.28;;;6.97;79.78
51313;BME280;37397;53.226;10.400;2023-02-03T02:32:27;101123.97;;;7.12;80.52
51313;BME280;37397;53.226;10.400;2023-02-03T02:37:58;101133.78;;;7.24;80.11
51313;BME280;37397;53.226;10.400;2023-02-03T02:40:42;101134.91;;;7.26;79.96
51313;BME280;37397;53.226;10.400;2023-02-03T02:43:27;101138.66;;;7.23;80.46
51313;BME280;37397;53.226;10.400;2023-02-03T02:46:01;101121.84;;;7.29;80.39
51313;BME280;37397;53.226;10.400;2023-02-03T02:48:35;101119.81;;;7.29;80.32
51313;BME280;37397;53.226;10.400;2023-02-03T02:51:05;101115.72;;;7.30;80.32
51313;BME280;37397;53.226;10.400;2023-02-03T02:53:36;101119.94;;;7.39;80.25
51313;BME280;37397;53.226;10.400;2023-02-03T02:56:07;101121.53;;;7.40;80.43
51313;BME280;37397;53.226;10.400;2023-02-03T02:58:38;101127.91;;;7.44;80.33
51313;BME280;37397;53.226;10.400;2023-02-03T03:01:07;101123.03;;;7.44;80.21
51313;BME280;37397;53.226;10.400;2023-02-03T03:03:36;101130.19;;;7.49;80.35
51313;BME280;37397;53.226;10.400;2023-02-03T03:06:11;101106.88;;;7.41;80.30
51313;BME280;37397;53.226;10.400;2023-02-03T03:08:55;101112.78;;;7.47;80.58
51313;BME280;37397;53.226;10.400;2023-02-03T03:11:27;101121.22;;;7.51;80.43
51313;BME280;37397;53.226;10.400;2023-02-03T03:13:58;101114.19;;;7.55;80.60
51313;BME280;37397;53.226;10.400;2023-02-03T03:16:28;101109.75;;;7.54;80.01
51313;BME280;37397;53.226;10.400;2023-02-03T03:19:06;101087.72;;;7.58;80.15
51313;BME280;37397;53.226;10.400;2023-02-03T03:21:40;101094.63;;;7.57;80.22
51313;BME280;37397;53.226;10.400;2023-02-03T03:24:11;101091.78;;;7.57;80.37
51313;BME280;37397;53.226;10.400;2023-02-03T03:27:12;101096.56;;;7.60;80.25
51313;BME280;37397;53.226;10.400;2023-02-03T03:29:54;101069.41;;;7.59;80.10
51313;BME280;37397;53.226;10.400;2023-02-03T03:32:23;101051.13;;;7.60;80.21
51313;BME280;37397;53.226;10.400;2023-02-03T03:34:51;101068.84;;;7.64;80.25
51313;BME280;37397;53.226;10.400;2023-02-03T03:37:27;101048.63;;;7.62;80.17
51313;BME280;37397;53.226;10.400;2023-02-03T03:40:08;101043.63;;;7.66;80.22
51313;BME280;37397;53.226;10.400;2023-02-03T03:43:03;101045.22;;;7.67;80.32
51313;BME280;37397;53.226;10.400;2023-02-03T03:45:35;101042.72;;;7.70;80.30
51313;BME280;37397;53.226;10.400;2023-02-03T03:48:18;101048.28;;;7.73;80.44
51313;BME280;37397;53.226;10.400;2023-02-03T03:50:50;101044.16;;;7.74;80.38
51313;BME280;37397;53.226;10.400;2023-02-03T03:53:18;101049.06;;;7.74;80.40
51313;BME280;37397;53.226;10.400;2023-02-03T03:55:49;101050.09;;;7.80;80.49
51313;BME280;37397;53.226;10.400;2023-02-03T03:58:22;101011.34;;;7.73;80.31
51313;BME280;37397;53.226;10.400;2023-02-03T04:00:53;101023.28;;;7.81;80.53
51313;BME280;37397;53.226;10.400;2023-02-03T04:03:23;101028.50;;;7.82;80.28
51313;BME280;37397;53.226;10.400;2023-02-03T04:05:52;101033.38;;;7.82;80.27
51313;BME280;37397;53.226;10.400;2023-02-03T04:08:18;101035.75;;;7.83;80.18
51313;BME280;37397;53.226;10.400;2023-02-03T04:10:45;101028.50;;;7.82;80.38
51313;BME280;37397;53.226;10.400;2023-02-03T04:13:11;101025.88;;;7.88;80.18
51313;BME280;37397;53.226;10.400;2023-02-03T04:15:38;101025.06;;;7.88;80.23
51313;BME280;37397;53.226;10.400;2023-02-03T04:18:05;101017.66;;;7.90;80.26
51313;BME280;37397;53.226;10.400;2023-02-03T04:20:32;101030.97;;;7.93;80.46
51313;BME280;37397;53.226;10.400;2023-02-03T04:22:59;101026.88;;;7.94;80.34
51313;BME280;37397;53.226;10.400;2023-02-03T04:25:25;101019.28;;;7.91;80.42
51313;BME280;37397;53.226;10.400;2023-02-03T04:27:52;101000.53;;;7.94;80.16
51313;BME280;37397;53.226;10.400;2023-02-03T04:30:18;100982.53;;;7.97;80.26
51313;BME280;37397;53.226;10.400;2023-02-03T04:32:45;100980.81;;;7.99;80.44
51313;BME280;37397;53.226;10.400;2023-02-03T04:35:12;100974.00;;;7.97;80.41
51313;BME280;37397;53.226;10.400;2023-02-03T04:37:38;100966.94;;;8.01;80.32
51313;BME280;37397;53.226;10.400;2023-02-03T04:40:05;100953.19;;;8.00;80.41
51313;BME280;37397;53.226;10.400;2023-02-03T04:42:32;100969.31;;;8.03;80.37
51313;BME280;37397;53.226;10.400;2023-02-03T04:44:58;100966.84;;;8.05;80.29
51313;BME280;37397;53.226;10.400;2023-02-03T04:47:25;100969.78;;;8.01;80.09
51313;BME280;37397;53.226;10.400;2023-02-03T04:49:51;100952.16;;;8.07;80.29
51313;BME280;37397;53.226;10.400;2023-02-03T04:52:18;100939.34;;;8.02;80.38
51313;BME280;37397;53.226;10.400;2023-02-03T04:54:44;100948.97;;;8.04;80.40
51313;BME280;37397;53.226;10.400;2023-02-03T04:57:11;100956.91;;;8.10;80.18
51313;BME280;37397;53.226;10.400;2023-02-03T04:59:37;100970.47;;;8.06;80.31
51313;BME280;37397;53.226;10.400;2023-02-03T05:02:04;100977.94;;;8.12;80.46
51313;BME280;37397;53.226;10.400;2023-02-03T05:04:31;100970.66;;;8.11;80.34
51313;BME280;37397;53.226;10.400;2023-02-03T05:06:57;100958.81;;;8.13;80.35
51313;BME280;37397;53.226;10.400;2023-02-03T05:09:24;100963.25;;;8.14;80.31
51313;BME280;37397;53.226;10.400;2023-02-03T05:11:51;100968.94;;;8.14;80.18
51313;BME280;37397;53.226;10.400;2023-02-03T05:14:18;100970.09;;;8.16;80.07
51313;BME280;37397;53.226;10.400;2023-02-03T05:16:45;100961.56;;;8.16;80.35
51313;BME280;37397;53.226;10.400;2023-02-03T05:19:12;100957.59;;;8.14;80.56
51313;BME280;37397;53.226;10.400;2023-02-03T05:21:39;100953.81;;;8.17;80.60
51313;BME280;37397;53.226;10.400;2023-02-03T05:24:05;100954.59;;;8.17;80.45
51313;BME280;37397;53.226;10.400;2023-02-03T05:26:34;100933.00;;;8.20;80.76
51313;BME280;37397;53.226;10.400;2023-02-03T05:29:02;100920.03;;;8.19;80.71
51313;BME280;37397;53.226;10.400;2023-02-03T05:31:28;100912.63;;;8.21;80.62
51313;BME280;37397;53.226;10.400;2023-02-03T05:33:55;100903.66;;;8.23;80.64
51313;BME280;37397;53.226;10.400;2023-02-03T05:36:21;100886.38;;;8.17;80.58
51313;BME280;37397;53.226;10.400;2023-02-03T05:38:48;100888.31;;;8.20;80.66
51313;BME280;37397;53.226;10.400;2023-02-03T05:41:14;100902.72;;;8.26;80.40
51313;BME280;37397;53.226;10.400;2023-02-03T05:43:59;100897.97;;;8.23;80.64
51313;BME280;37397;53.226;10.400;2023-02-03T05:46:26;100889.09;;;8.21;80.69
51313;BME280;37397;53.226;10.400;2023-02-03T05:48:53;100880.44;;;8.25;80.50
51313;BME280;37397;53.226;10.400;2023-02-03T05:51:19;100882.47;;;8.24;80.51
51313;BME280;37397;53.226;10.400;2023-02-03T05:53:45;100879.63;;;8.24;80.55
51313;BME280;37397;53.226;10.400;2023-02-03T05:56:12;100892.91;;;8.27;80.40
51313;BME280;37397;53.226;10.400;2023-02-03T05:58:39;100885.66;;;8.26;80.45
51313;BME280;37397;53.226;10.400;2023-02-03T06:01:05;100876.22;;;8.29;80.43
51313;BME280;37397;53.226;10.400;2023-02-03T06:03:31;100874.94;;;8.30;80.56
51313;BME280;37397;53.226;10.400;2023-02-03T06:05:58;100865.16;;;8.31;80.52
51313;BME280;37397;53.226;10.400;2023-02-03T06:08:24;100861.53;;;8.31;80.60
51313;BME280;37397;53.226;10.400;2023-02-03T06:10:58;100855.38;;;8.32;80.32
51313;BME280;37397;53.226;10.400;2023-02-03T06:13:26;100846.84;;;8.32;80.63
51313;BME280;37397;53.226;10.400;2023-02-03T06:15:52;100854.88;;;8.34;80.56
51313;BME280;37397;53.226;10.400;2023-02-03T06:18:19;100862.63;;;8.33;80.59
51313;BME280;37397;53.226;10.400;2023-02-03T06:20:46;100847.31;;;8.31;80.60
51313;BME280;37397;53.226;10.400;2023-02-03T06:23:12;100839.56;;;8.31;80.39
51313;BME280;37397;53.226;10.400;2023-02-03T06:25:39;100843.88;;;8.36;80.70
51313;BME280;37397;53.226;10.400;2023-02-03T06:28:06;100844.78;;;8.33;80.61
51313;BME280;37397;53.226;10.400;2023-02-03T06:30:32;100846.25;;;8.37;80.63
51313;BME280;37397;53.226;10.400;2023-02-03T06:32:59;100846.03;;;8.32;80.50
51313;BME280;37397;53.226;10.400;2023-02-03T06:35:25;100854.44;;;8.35;80.66
51313;BME280;37397;53.226;10.400;2023-02-03T06:37:52;100842.13;;;8.38;80.54
51313;BME280;37397;53.226;10.400;2023-02-03T06:40:18;100842.94;;;8.39;80.57
51313;BME280;37397;53.226;10.400;2023-02-03T06:42:46;100846.88;;;8.42;80.40
51313;BME280;37397;53.226;10.400;2023-02-03T06:45:13;100855.88;;;8.40;80.73
51313;BME280;37397;53.226;10.400;2023-02-03T06:47:41;100829.19;;;8.37;80.81
51313;BME280;37397;53.226;10.400;2023-02-03T06:50:10;100826.66;;;8.39;80.76
51313;BME280;37397;53.226;10.400;2023-02-03T06:52:37;100841.19;;;8.42;80.77
51313;BME280;37397;53.226;10.400;2023-02-03T06:55:04;100824.94;;;8.42;80.70
51313;BME280;37397;53.226;10.400;2023-02-03T06:57:31;100836.19;;;8.46;80.74
51313;BME280;37397;53.226;10.400;2023-02-03T06:59:58;100841.88;;;8.46;80.83
51313;BME280;37397;53.226;10.400;2023-02-03T07:02:24;100811.97;;;8.41;80.81
51313;BME280;37397;53.226;10.400;2023-02-03T07:04:51;100812.31;;;8.43;80.79
51313;BME280;37397;53.226;10.400;2023-02-03T07:07:17;100808.66;;;8.43;80.70
51313;BME280;37397;53.226;10.400;2023-02-03T07:09:44;100818.66;;;8.47;80.77
51313;BME280;37397;53.226;10.400;2023-02-03T07:12:10;100814.09;;;8.50;80.74
51313;BME280;37397;53.226;10.400;2023-02-03T07:14:37;100807.75;;;8.46;80.61
51313;BME280;37397;53.226;10.400;2023-02-03T07:17:05;100820.59;;;8.50;80.79
51313;BME280;37397;53.226;10.400;2023-02-03T07:19:32;100810.00;;;8.51;80.73
51313;BME280;37397;53.226;10.400;2023-02-03T07:21:58;100818.53;;;8.51;80.90
51313;BME280;37397;53.226;10.400;2023-02-03T07:24:25;100814.09;;;8.50;80.85
51313;BME280;37397;53.226;10.400;2023-02-03T07:26:51;100810.78;;;8.51;81.04
51313;BME280;37397;53.226;10.400;2023-02-03T07:29:18;100811.59;;;8.52;81.07
51313;BME280;37397;53.226;10.400;2023-02-03T07:31:45;100818.84;;;8.53;81.07
51313;BME280;37397;53.226;10.400;2023-02-03T07:34:11;100813.16;;;8.53;81.10
51313;BME280;37397;53.226;10.400;2023-02-03T07:36:38;100780.09;;;8.46;81.15
51313;BME280;37397;53.226;10.400;2023-02-03T07:39:04;100797.22;;;8.55;81.18
51313;BME280;37397;53.226;10.400;2023-02-03T07:41:31;100794.38;;;8.55;81.10
51313;BME280;37397;53.226;10.400;2023-02-03T07:43:57;100795.63;;;8.54;81.27
51313;BME280;37397;53.226;10.400;2023-02-03T07:46:24;100796.09;;;8.53;81.14
51313;BME280;37397;53.226;10.400;2023-02-03T07:48:50;100805.59;;;8.59;81.27
51313;BME280;37397;53.226;10.400;2023-02-03T07:51:17;100783.78;;;8.56;81.29
51313;BME280;37397;53.226;10.400;2023-02-03T07:53:44;100783.78;;;8.56;81.35
51313;BME280;37397;53.226;10.400;2023-02-03T07:56:11;100787.44;;;8.56;81.22
51313;BME280;37397;53.226;10.400;2023-02-03T07:58:37;100772.25;;;8.60;81.44
51313;BME280;37397;53.226;10.400;2023-02-03T08:01:14;100783.63;;;8.60;81.46
51313;BME280;37397;53.226;10.400;2023-02-03T08:03:41;100778.75;;;8.60;81.52
51313;BME280;37397;53.226;10.400;2023-02-03T08:06:08;100780.19;;;8.65;81.55
51313;BME280;37397;53.226;10.400;2023-02-03T08:08:35;100786.66;;;8.65;81.50
51313;BME280;37397;53.226;10.400;2023-02-03T08:11:02;100780.31;;;8.61;81.46
51313;BME280;37397;53.226;10.400;2023-02-03T08:13:28;100781.44;;;8.64;81.38
51313;BME280;37397;53.226;10.400;2023-02-03T08:15:55;100773.22;;;8.66;81.44
51313;BME280;37397;53.226;10.400;2023-02-03T08:18:21;100777.97;;;8.69;81.52
51313;BME280;37397;53.226;10.400;2023-02-03T08:20:48;100791.41;;;8.68;81.54
51313;BME280;37397;53.226;10.400;2023-02-03T08:23:15;100798.66;;;8.69;81.69
51313;BME280;37397;53.226;10.400;2023-02-03T08:25:41;100793.94;;;8.66;81.63
51313;BME280;37397;53.226;10.400;2023-02-03T08:28:08;100783.66;;;8.69;81.62
51313;BME280;37397;53.226;10.400;2023-02-03T08:30:35;100794.56;;;8.70;81.55
51313;BME280;37397;53.226;10.400;2023-02-03T08:33:01;100804.56;;;8.75;81.89
51313;BME280;37397;53.226;10.400;2023-02-03T08:35:27;100786.22;;;8.76;81.76
51313;BME280;37397;53.226;10.400;2023-02-03T08:37:54;100804.09;;;8.76;81.62
51313;BME280;37397;53.226;10.400;2023-02-03T08:40:21;100792.22;;;8.78;81.81
51313;BME280;37397;53.226;10.400;2023-02-03T08:42:48;100795.84;;;8.79;81.77
51313;BME280;37397;53.226;10.400;2023-02-03T08:45:15;100791.44;;;8.78;81.84
51313;BME280;37397;53.226;10.400;2023-02-03T08:47:41;100799.03;;;8.81;81.92
51313;BME280;37397;53.226;10.400;2023-02-03T08:50:08;100826.22;;;8.82;81.82
51313;BME280;37397;53.226;10.400;2023-02-03T08:52:35;100894.50;;;8.82;82.13
51313;BME280;37397;53.226;10.400;2023-02-03T08:55:02;100929.94;;;8.81;82.34
51313;BME280;37397;53.226;10.400;2023-02-03T08:57:35;100896.72;;;8.78;82.14
51313;BME280;37397;53.226;10.400;2023-02-03T09:00:04;100906.03;;;8.78;81.90
51313;BME280;37397;53.226;10.400;2023-02-03T09:02:31;100922.66;;;8.80;81.45
51313;BME280;37397;53.226;10.400;2023-02-03T09:04:57;100911.41;;;8.76;81.26
51313;BME280;37397;53.226;10.400;2023-02-03T09:07:24;100885.34;;;8.78;80.98
51313;BME280;37397;53.226;10.400;2023-02-03T09:09:51;100899.56;;;8.78;80.84
51313;BME280;37397;53.226;10.400;2023-02-03T09:12:17;100895.13;;;8.76;80.69
51313;BME280;37397;53.226;10.400;2023-02-03T09:14:44;100891.97;;;8.74;80.57
51313;BME280;37397;53.226;10.400;2023-02-03T09:17:10;100886.59;;;8.76;80.57
51313;BME280;37397;53.226;10.400;2023-02-03T09:19:37;100895.13;;;8.76;80.54
51313;BME280;37397;53.226;10.400;2023-02-03T09:22:04;100881.38;;;8.75;80.30
51313;BME280;37397;53.226;10.400;2023-02-03T09:24:30;100891.31;;;8.70;80.12
51313;BME280;37397;53.226;10.400;2023-02-03T09:26:57;100870.91;;;8.72;80.03
51313;BME280;37397;53.226;10.400;2023-02-03T09:29:26;100863.63;;;8.71;80.07
51313;BME280;37397;53.226;10.400;2023-02-03T09:31:53;100858.41;;;8.69;79.80
51313;BME280;37397;53.226;10.400;2023-02-03T09:34:20;100882.13;;;8.66;79.56
51313;BME280;37397;53.226;10.400;2023-02-03T09:36:47;100863.94;;;8.64;79.37
51313;BME280;37397;53.226;10.400;2023-02-03T09:39:14;100875.78;;;8.62;79.27
51313;BME280;37397;53.226;10.400;2023-02-03T09:42:08;100880.34;;;8.60;78.92
51313;BME280;37397;53.226;10.400;2023-02-03T09:44:56;100876.38;;;8.57;79.26
51313;BME280;37397;53.226;10.400;2023-02-03T09:47:31;100871.16;;;8.55;79.23
51313;BME280;37397;53.226;10.400;2023-02-03T09:50:11;100889.63;;;8.51;78.85
51313;BME280;37397;53.226;10.400;2023-02-03T09:52:40;100883.94;;;8.51;78.99
51313;BME280;37397;53.226;10.400;2023-02-03T09:58:18;100914.91;;;8.49;78.95
51313;BME280;37397;53.226;10.400;2023-02-03T10:00:49;100917.28;;;8.50;78.94
51313;BME280;37397;53.226;10.400;2023-02-03T10:06:19;100909.22;;;8.49;78.98
51313;BME280;37397;53.226;10.400;2023-02-03T10:14:45;100921.19;;;8.44;79.16
51313;BME280;37397;53.226;10.400;2023-02-03T10:17:23;100941.09;;;8.44;79.14
51313;BME280;37397;53.226;10.400;2023-02-03T10:20:03;100951.19;;;8.45;79.16
51313;BME280;37397;53.226;10.400;2023-02-03T10:22:33;100959.06;;;8.40;79.23
51313;BME280;37397;53.226;10.400;2023-02-03T10:25:15;100944.03;;;8.40;78.89
51313;BME280;37397;53.226;10.400;2023-02-03T10:27:43;100950.53;;;8.40;78.86
51313;BME280;37397;53.226;10.400;2023-02-03T10:30:27;100943.56;;;8.42;78.57
51313;BME280;37397;53.226;10.400;2023-02-03T10:33:01;100960.63;;;8.42;78.74
51313;BME280;37397;53.226;10.400;2023-02-03T10:35:44;100957.34;;;8.43;78.50
51313;BME280;37397;53.226;10.400;2023-02-03T10:38:21;100956.53;;;8.43;78.59
51313;BME280;37397;53.226;10.400;2023-02-03T10:40:52;100969.06;;;8.45;78.49
51313;BME280;37397;53.226;10.400;2023-02-03T10:43:19;100976.78;;;8.45;78.48
51313;BME280;37397;53.226;10.400;2023-02-03T10:46:04;100984.19;;;8.42;78.42
51313;BME280;37397;53.226;10.400;2023-02-03T10:48:30;100982.13;;;8.43;78.23
51313;BME280;37397;53.226;10.400;2023-02-03T10:50:57;100986.59;;;8.44;78.22
51313;BME280;37397;53.226;10.400;2023-02-03T10:53:32;100998.88;;;8.40;78.09
51313;BME280;37397;53.226;10.400;2023-02-03T10:56:11;100995.22;;;8.40;77.80
51313;BME280;37397;53.226;10.400;2023-02-03T10:58:45;101005.47;;;8.37;77.71
51313;BME280;37397;53.226;10.400;2023-02-03T11:01:15;101003.66;;;8.44;77.81
51313;BME280;37397;53.226;10.400;2023-02-03T11:03:52;101049.16;;;8.44;77.74
51313;BME280;37397;53.226;10.400;2023-02-03T11:06:20;101045.94;;;8.42;77.44
51313;BME280;37397;53.226;10.400;2023-02-03T11:08:49;101023.19;;;8.42;77.27
51313;BME280;37397;53.226;10.400;2023-02-03T11:11:24;101016.41;;;8.39;77.05
51313;BME280;37397;53.226;10.400;2023-02-03T11:14:14;100998.88;;;8.40;77.06
51313;BME280;37397;53.226;10.400;2023-02-03T11:16:42;101007.66;;;8.33;76.81
51313;BME280;37397;53.226;10.400;2023-02-03T11:19:20;101010.81;;;8.35;76.54
51313;BME280;37397;53.226;10.400;2023-02-03T11:21:49;101016.97;;;8.34;76.53
51313;BME280;37397;53.226;10.400;2023-02-03T11:24:31;100998.97;;;8.37;76.27
51313;BME280;37397;53.226;10.400;2023-02-03T11:27:11;101035.03;;;8.40;76.44
51313;BME280;37397;53.226;10.400;2023-02-03T11:29:45;100999.78;;;8.37;76.30
51313;BME280;37397;53.226;10.400;2023-02-03T11:32:17;101038.69;;;8.40;76.22
51313;BME280;37397;53.226;10.400;2023-02-03T11:34:53;101007.72;;;8.43;76.36
51313;BME280;37397;53.226;10.400;2023-02-03T11:37:41;101011.03;;;8.41;75.88
51313;BME280;37397;53.226;10.400;2023-02-03T11:42:40;101014.66;;;8.42;75.85
51313;BME280;37397;53.226;10.400;2023-02-03T11:48:17;101099.19;;;8.41;75.58
51313;BME280;37397;53.226;10.400;2023-02-03T11:56:38;101022.31;;;8.45;74.88
51313;BME280;37397;53.226;10.400;2023-02-03T12:05:48;101028.00;;;8.45;74.71
51313;BME280;37397;53.226;10.400;2023-02-03T12:08:24;101053.22;;;8.43;74.16
51313;BME280;37397;53.226;10.400;2023-02-03T12:11:08;101042.22;;;8.45;74.21
51313;BME280;37397;53.226;10.400;2023-02-03T12:13:59;101052.34;;;8.46;74.42
51313;BME280;37397;53.226;10.400;2023-02-03T12:16:52;101058.81;;;8.46;74.09
51313;BME280;37397;53.226;10.400;2023-02-03T12:22:49;101049.69;;;8.38;73.84
51313;BME280;37397;53.226;10.400;2023-02-03T12:28:44;101096.25;;;8.45;74.04
51313;BME280;37397;53.226;10.400;2023-02-03T12:31:23;101092.47;;;8.48;73.57
51313;BME280;37397;53.226;10.400;2023-02-03T12:34:09;101091.25;;;8.49;73.07
51313;BME280;37397;53.226;10.400;2023-02-03T12:36:49;101083.94;;;8.48;72.84
51313;BME280;37397;53.226;10.400;2023-02-03T12:39:25;101081.56;;;8.46;73.15
51313;BME280;37397;53.226;10.400;2023-02-03T12:41:59;101072.56;;;8.48;72.98
51313;BME280;37397;53.226;10.400;2023-02-03T12:44:34;101087.13;;;8.50;72.94
51313;BME280;37397;53.226;10.400;2023-02-03T12:47:19;101090.78;;;8.50;72.59
51313;BME280;37397;53.226;10.400;2023-02-03T12:49:52;101085.56;;;8.49;72.46
51313;BME280;37397;53.226;10.400;2023-02-03T12:52:29;101107.38;;;8.52;72.67
51313;BME280;37397;53.226;10.400;2023-02-03T12:57:57;101100.09;;;8.51;72.22
51313;BME280;37397;53.226;10.400;2023-02-03T13:00:38;101098.63;;;8.46;71.84
51313;BME280;37397;53.226;10.400;2023-02-03T13:03:29;101092.81;;;8.50;71.71
51313;BME280;37397;53.226;10.400;2023-02-03T13:06:05;101082.25;;;8.50;72.16
51313;BME280;37397;53.226;10.400;2023-02-03T13:08:59;101105.91;;;8.47;71.69
51313;BME280;37397;53.226;10.400;2023-02-03T13:16:41;101096.00;;;8.52;71.47
51313;BME280;37397;53.226;10.400;2023-02-03T13:19:16;101089.03;;;8.53;71.63
51313;BME280;37397;53.226;10.400;2023-02-03T13:21:44;101126.84;;;8.53;71.71
51313;BME280;37397;53.226;10.400;2023-02-03T13:24:12;101121.94;;;8.54;71.65
51313;BME280;37397;53.226;10.400;2023-02-03T13:26:53;101115.91;;;8.52;71.04
51313;BME280;37397;53.226;10.400;2023-02-03T13:37:47;101132.63;;;8.50;71.35
51313;BME280;37397;53.226;10.400;2023-02-03T13:40:26;101125.38;;;8.49;71.08
51313;BME280;37397;53.226;10.400;2023-02-03T13:42:59;101126.16;;;8.49;70.49
51313;BME280;37397;53.226;10.400;2023-02-03T13:45:33;101128.66;;;8.47;70.53
51313;BME280;37397;53.226;10.400;2023-02-03T13:48:14;101126.94;;;8.50;70.12
51313;BME280;37397;53.226;10.400;2023-02-03T13:50:43;101135.16;;;8.48;70.19
51313;BME280;37397;53.226;10.400;2023-02-03T13:53:23;101141.50;;;8.52;70.15
51313;BME280;37397;53.226;10.400;2023-02-03T13:56:00;101133.44;;;8.50;69.74
51313;BME280;37397;53.226;10.400;2023-02-03T13:58:30;101144.81;;;8.50;70.33
51313;BME280;37397;53.226;10.400;2023-02-03T14:01:00;101142.44;;;8.49;69.94
51313;BME280;37397;53.226;10.400;2023-02-03T14:05:55;101124.09;;;8.50;69.80
51313;BME280;37397;53.226;10.400;2023-02-03T14:16:43;101162.34;;;8.49;69.69
51313;BME280;37397;53.226;10.400;2023-02-03T14:19:11;101145.16;;;8.39;68.10
51313;BME280;37397;53.226;10.400;2023-02-03T14:21:48;101166.09;;;8.46;68.63
51313;BME280;37397;53.226;10.400;2023-02-03T14:24:17;101174.97;;;8.48;69.04
51313;BME280;37397;53.226;10.400;2023-02-03T14:26:47;101176.56;;;8.49;69.10
51313;BME280;37397;53.226;10.400;2023-02-03T14:32:13;101160.88;;;8.44;69.52
51313;BME280;37397;53.226;10.400;2023-02-03T14:34:44;101209.09;;;8.48;68.93
51313;BME280;37397;53.226;10.400;2023-02-03T14:39:56;101178.59;;;8.48;68.75
51313;BME280;37397;53.226;10.400;2023-02-03T14:42:43;101174.31;;;8.44;68.79
51313;BME280;37397;53.226;10.400;2023-02-03T14:57:25;101204.88;;;8.39;68.58
51313;BME280;37397;53.226;10.400;2023-02-03T15:02:33;101186.56;;;8.40;69.24
51313;BME280;37397;53.226;10.400;2023-02-03T15:07:46;101188.13;;;8.42;69.14